Time;durP1;ratioP1;P1;durP2;ratioP2;P2;SDS_P1;SDS_P2;PMS_P1;PMS_P2;Temp;Humidity;BMP_temperature;BMP_pressure;BME280_temperature;BME280_humidity;BME280_pressure;Samples;Min_cycle;Max_cycle;Signal;HPM_P1;HPM_P2
2022/12/07 05:01:06;;;;;;;1999.90;999.90;;;3.20;99.90;;;;;;5677963;23;20050;-76
2022/12/07 05:03:32;;;;;;;1999.90;999.90;;;3.20;99.90;;;;;;4995201;28;20043;-77
2022/12/07 05:05:57;;;;;;;1999.90;999.90;;;3.20;99.90;;;;;;4995113;28;20034;-77
2022/12/07 05:08:23;;;;;;;1999.90;999.90;;;3.10;99.90;;;;;;4993702;28;20047;-77
2022/12/07 05:10:49;;;;;;;1999.90;999.90;;;3.10;99.90;;;;;;4995668;28;20039;-77
2022/12/07 05:13:15;;;;;;;1999.90;999.90;;;3.10;99.90;;;;;;5017865;22;20051;-78
2022/12/07 05:15:42;;;;;;;1999.90;999.90;;;3.20;99.90;;;;;;4993441;28;20039;-78
2022/12/07 05:18:08;;;;;;;1999.90;999.90;;;3.20;99.90;;;;;;4993535;28;20066;-78
2022/12/07 05:20:34;;;;;;;1999.90;999.90;;;3.20;99.90;;;;;;4993110;28;20479;-78
2022/12/07 05:23:00;;;;;;;1999.90;999.90;;;3.30;99.90;;;;;;4994115;28;20035;-78
2022/12/07 05:25:25;;;;;;;1999.90;999.90;;;3.20;99.90;;;;;;4994857;28;20042;-78
2022/12/07 05:27:51;;;;;;;1999.90;999.90;;;3.20;99.90;;;;;;4993299;28;20039;-78
2022/12/07 05:30:16;;;;;;;1999.90;999.90;;;3.20;99.90;;;;;;4994552;28;20041;-78
2022/12/07 05:32:42;;;;;;;1999.90;999.90;;;3.20;99.90;;;;;;4992994;28;20488;-77
2022/12/07 05:35:08;;;;;;;1999.90;999.90;;;3.20;99.90;;;;;;4994945;28;20066;-78
2022/12/07 05:37:33;;;;;;;1999.90;999.90;;;3.20;99.90;;;;;;4993025;28;20031;-78
2022/12/07 05:39:59;;;;;;;1999.90;999.90;;;3.30;99.90;;;;;;4994427;28;20073;-78
2022/12/07 05:42:24;;;;;;;1999.90;999.90;;;3.30;99.90;;;;;;4993034;28;20031;-78
2022/12/07 05:44:50;;;;;;;1999.90;999.90;;;3.30;99.90;;;;;;4992961;28;20034;-78
2022/12/07 05:47:16;;;;;;;1999.90;999.90;;;3.30;99.90;;;;;;4994704;28;20065;-78
2022/12/07 05:49:41;;;;;;;1999.90;999.90;;;3.30;99.90;;;;;;4992924;28;20046;-78
2022/12/07 05:52:07;;;;;;;1999.90;999.90;;;3.30;99.90;;;;;;4992641;28;20082;-78
2022/12/07 05:54:33;;;;;;;1999.90;999.90;;;3.20;99.90;;;;;;4994391;28;20090;-78
2022/12/07 05:56:59;;;;;;;1999.90;999.90;;;3.30;99.90;;;;;;4994201;28;20034;-78
2022/12/07 05:59:27;;;;;;;1999.90;999.90;;;3.30;99.90;;;;;;4993096;28;20030;-78
2022/12/07 06:02:04;;;;;;;1999.90;999.90;;;3.30;99.90;;;;;;4997777;28;20027;-79
2022/12/07 06:04:33;;;;;;;1999.90;999.90;;;3.30;99.90;;;;;;5006407;28;20042;-79
2022/12/07 06:06:59;;;;;;;1999.90;999.90;;;3.30;99.90;;;;;;5009140;28;20030;-79
2022/12/07 06:09:26;;;;;;;1999.90;999.90;;;3.30;99.90;;;;;;5010757;28;20489;-79
2022/12/07 06:14:37;;;;;;;1999.90;999.90;;;3.30;99.90;;;;;;5011360;28;20055;-79
2022/12/07 06:17:02;;;;;;;1999.90;999.90;;;3.30;99.90;;;;;;5016240;28;20027;-79
2022/12/07 06:19:28;;;;;;;1999.90;999.90;;;3.30;99.90;;;;;;5013783;28;20058;-79
2022/12/07 06:21:54;;;;;;;1999.90;999.90;;;3.30;99.90;;;;;;5011675;28;20039;-79
2022/12/07 06:24:19;;;;;;;1999.90;999.90;;;3.30;99.90;;;;;;5008379;28;20042;-79
2022/12/07 06:26:45;;;;;;;1999.90;999.90;;;3.30;99.90;;;;;;5007542;28;20575;-79
2022/12/07 06:29:12;;;;;;;1999.90;999.90;;;3.30;99.90;;;;;;5003672;28;20046;-79
2022/12/07 06:31:38;;;;;;;1999.90;999.90;;;3.30;99.90;;;;;;5005732;28;20066;-79
2022/12/07 06:34:06;;;;;;;1999.90;999.90;;;3.30;99.90;;;;;;5006143;28;20054;-79
2022/12/07 06:36:32;;;;;;;1999.90;999.90;;;3.40;99.90;;;;;;5006677;28;20490;-79
2022/12/07 06:38:57;;;;;;;1999.90;999.90;;;3.40;99.90;;;;;;5004544;28;20058;-78
2022/12/07 06:41:23;;;;;;;1999.90;999.90;;;3.40;99.90;;;;;;5006825;28;20129;-80
2022/12/07 06:43:49;;;;;;;1999.90;999.90;;;3.40;99.90;;;;;;5006204;28;20031;-79
2022/12/07 06:46:15;;;;;;;1999.90;999.90;;;3.40;99.90;;;;;;5005288;28;20031;-80
2022/12/07 06:48:42;;;;;;;1999.90;999.90;;;3.40;99.90;;;;;;5005299;28;20027;-79
2022/12/07 06:51:07;;;;;;;1999.90;999.90;;;3.40;99.90;;;;;;5007822;28;20038;-79
2022/12/07 06:53:33;;;;;;;1999.90;999.90;;;3.40;99.90;;;;;;5004704;28;20480;-79
2022/12/07 06:55:59;;;;;;;1999.90;999.90;;;3.40;99.90;;;;;;5005681;28;20098;-79
2022/12/07 06:58:25;;;;;;;1999.90;999.90;;;3.40;99.90;;;;;;5005889;28;20046;-79
2022/12/07 07:00:50;;;;;;;1999.90;999.90;;;3.40;99.90;;;;;;5005547;28;20076;-80
2022/12/07 07:03:16;;;;;;;1999.90;999.90;;;3.40;99.90;;;;;;5007069;28;20139;-80
2022/12/07 07:05:43;;;;;;;1999.90;999.90;;;3.40;99.90;;;;;;5009036;28;20038;-79
2022/12/07 07:08:09;;;;;;;1999.90;999.90;;;3.40;99.90;;;;;;5010249;28;20063;-80
2022/12/07 07:10:35;;;;;;;1999.90;999.90;;;3.40;99.90;;;;;;5009342;28;20034;-79
2022/12/07 07:13:01;;;;;;;1999.90;999.90;;;3.40;99.90;;;;;;5006919;28;20037;-79
2022/12/07 07:15:27;;;;;;;1999.90;999.90;;;3.40;99.90;;;;;;5000947;28;20506;-80
2022/12/07 07:17:52;;;;;;;1999.90;999.90;;;3.40;99.90;;;;;;5000164;28;20444;-80
2022/12/07 07:20:18;;;;;;;1999.90;999.90;;;3.40;99.90;;;;;;5002591;28;20045;-79
2022/12/07 07:22:44;;;;;;;1999.90;999.90;;;3.50;99.90;;;;;;4999295;28;20118;-79
2022/12/07 07:25:09;;;;;;;1999.90;999.90;;;3.50;99.90;;;;;;5000937;28;20086;-80
2022/12/07 07:27:35;;;;;;;1999.90;999.90;;;3.50;99.90;;;;;;4998152;28;20031;-79
2022/12/07 07:30:01;;;;;;;1999.90;999.90;;;3.50;99.90;;;;;;5000384;28;20050;-79
2022/12/07 07:32:26;;;;;;;1999.90;999.90;;;3.50;99.90;;;;;;4999907;28;20118;-80
2022/12/07 07:34:52;;;;;;;1999.90;999.90;;;3.50;99.90;;;;;;4997837;28;20035;-80
2022/12/07 07:37:17;;;;;;;1999.90;999.90;;;3.60;99.90;;;;;;4997784;28;20046;-80
2022/12/07 07:39:43;;;;;;;1999.90;999.90;;;3.60;99.90;;;;;;4998532;28;20050;-80
2022/12/07 07:42:08;;;;;;;1999.90;999.90;;;3.60;99.90;;;;;;4998096;28;20034;-80
2022/12/07 07:44:34;;;;;;;1999.90;999.90;;;3.60;99.90;;;;;;4997030;28;20038;-80
2022/12/07 07:47:00;;;;;;;1999.90;999.90;;;3.60;99.90;;;;;;4998174;28;20483;-80
2022/12/07 07:49:26;;;;;;;1999.90;999.90;;;3.60;99.90;;;;;;4999228;28;20046;-80
2022/12/07 07:51:52;;;;;;;1999.90;999.90;;;3.60;99.90;;;;;;4997632;28;20035;-80
2022/12/07 07:54:18;;;;;;;1999.90;999.90;;;3.70;99.90;;;;;;4998895;28;20421;-80
2022/12/07 07:56:46;;;;;;;1999.90;999.90;;;3.70;99.90;;;;;;4999481;28;20031;-80
2022/12/07 07:59:12;;;;;;;1999.90;999.90;;;3.70;99.90;;;;;;4997956;28;20039;-80
2022/12/07 08:01:37;;;;;;;1999.90;999.90;;;3.70;99.90;;;;;;4996409;28;20477;-81
2022/12/07 08:04:03;;;;;;;1999.90;999.90;;;3.80;99.90;;;;;;4996456;28;20035;-85
2022/12/07 08:06:28;;;;;;;1999.90;999.90;;;3.80;99.90;;;;;;4996155;28;20053;-86
2022/12/07 08:08:54;;;;;;;1999.90;999.90;;;3.90;99.90;;;;;;4998225;28;20043;-79
2022/12/07 08:11:19;;;;;;;1999.90;999.90;;;3.90;99.90;;;;;;5001144;28;20042;-86
2022/12/07 08:13:49;;;;;;;1999.90;999.90;;;3.90;99.90;;;;;;4994378;28;20715;-86
2022/12/07 08:16:15;;;;;;;1999.90;999.90;;;4.00;99.90;;;;;;4995846;28;20031;-85
2022/12/07 08:18:41;;;;;;;1999.90;999.90;;;4.00;99.90;;;;;;4995532;28;20094;-83
2022/12/07 08:21:10;;;;;;;1999.90;999.90;;;4.10;99.90;;;;;;4996201;28;20062;-84
2022/12/07 08:23:35;;;;;;;1999.90;999.90;;;4.10;99.90;;;;;;4996241;28;20070;-83
2022/12/07 08:26:03;;;;;;;1999.90;999.90;;;4.20;99.90;;;;;;4995492;28;20035;-84
2022/12/07 08:28:29;;;;;;;1999.90;999.90;;;4.30;99.90;;;;;;4995508;28;20485;-84
2022/12/07 08:31:03;;;;;;;1999.90;999.90;;;4.30;99.90;;;;;;4997236;28;20066;-79
2022/12/07 08:33:32;;;;;;;1999.90;999.90;;;4.30;99.90;;;;;;5002661;28;20038;-79
2022/12/07 08:36:06;;;;;;;1999.90;999.90;;;4.40;99.90;;;;;;4999609;28;20784;-80
2022/12/07 08:38:31;;;;;;;1999.90;999.90;;;4.40;99.90;;;;;;5001968;28;20034;-79
2022/12/07 08:40:58;;;;;;;1999.90;999.90;;;4.50;99.90;;;;;;5001817;28;20035;-80
2022/12/07 08:43:24;;;;;;;1999.90;999.90;;;4.50;99.90;;;;;;5002861;28;20027;-80
2022/12/07 08:46:02;;;;;;;1999.90;999.90;;;4.50;99.90;;;;;;5001272;28;20389;-82
2022/12/07 08:48:28;;;;;;;1999.90;999.90;;;4.50;99.90;;;;;;5002456;28;20075;-79
2022/12/07 08:50:53;;;;;;;1999.90;999.90;;;4.50;99.90;;;;;;4995072;28;20134;-78
2022/12/07 08:53:20;;;;;;;1999.90;999.90;;;4.40;99.90;;;;;;4991815;28;20061;-78
2022/12/07 08:55:46;;;;;;;1999.90;999.90;;;4.40;99.90;;;;;;4996660;28;20456;-78
2022/12/07 08:58:12;;;;;;;1999.90;999.90;;;4.40;99.90;;;;;;4997540;28;20014;-77
2022/12/07 09:00:37;;;;;;;1999.90;999.90;;;4.40;99.90;;;;;;4999809;28;20042;-78
2022/12/07 09:03:03;;;;;;;1999.90;999.90;;;4.40;99.90;;;;;;4998981;28;20031;-77
2022/12/07 09:05:28;;;;;;;1999.90;999.90;;;4.20;99.90;;;;;;4995734;28;20485;-78
2022/12/07 09:07:59;;;;;;;1999.90;999.90;;;4.30;99.90;;;;;;4992494;28;20042;-78
2022/12/07 09:10:25;;;;;;;1999.90;999.90;;;4.30;99.90;;;;;;4993368;28;20513;-78
2022/12/07 09:12:51;;;;;;;1999.90;999.90;;;4.30;99.90;;;;;;4993003;28;20485;-79
2022/12/07 09:15:17;;;;;;;1999.90;999.90;;;4.40;99.90;;;;;;4994571;28;20035;-78
2022/12/07 09:17:42;;;;;;;1999.90;999.90;;;4.50;99.90;;;;;;4995151;28;20031;-80
2022/12/07 09:20:09;;;;;;;1999.90;999.90;;;4.60;99.90;;;;;;4994427;28;20038;-80
2022/12/07 09:22:34;;;;;;;1999.90;999.90;;;4.70;99.90;;;;;;4994478;28;20037;-80
2022/12/07 09:25:01;;;;;;;1999.90;999.90;;;4.70;99.90;;;;;;4994953;28;20033;-81
2022/12/07 09:27:27;;;;;;;1999.90;999.90;;;4.80;99.90;;;;;;4993564;28;20043;-77
2022/12/07 09:29:52;;;;;;;1999.90;999.90;;;4.90;99.90;;;;;;4997856;28;20485;-80
2022/12/07 09:32:18;;;;;;;1999.90;999.90;;;4.90;99.90;;;;;;5003544;28;20094;-80
2022/12/07 09:34:44;;;;;;;1999.90;999.90;;;5.00;99.90;;;;;;4992866;28;20039;-80
2022/12/07 09:37:10;;;;;;;1999.90;999.90;;;5.10;99.90;;;;;;4994475;28;20034;-81
2022/12/07 09:39:38;;;;;;;1999.90;999.90;;;5.20;99.90;;;;;;4993689;28;20030;-80
2022/12/07 09:42:05;;;;;;;1999.90;999.90;;;5.30;99.90;;;;;;4998459;28;20119;-80
2022/12/07 09:44:31;;;;;;;1999.90;999.90;;;5.40;99.90;;;;;;4997779;28;20042;-79
2022/12/07 09:46:57;;;;;;;1999.90;999.90;;;5.60;99.90;;;;;;4997863;28;20109;-81
2022/12/07 09:49:26;;;;;;;1999.90;999.90;;;5.60;99.90;;;;;;4995959;28;20045;-80
2022/12/07 09:52:22;;;;;;;1999.90;999.90;;;5.80;99.90;;;;;;4995935;28;20602;-80
2022/12/07 09:54:50;;;;;;;1999.90;999.90;;;5.90;99.90;;;;;;5002404;28;20063;-80
2022/12/07 09:57:15;;;;;;;1999.90;999.90;;;6.00;99.90;;;;;;5001372;28;20042;-81
2022/12/07 09:59:41;;;;;;;1999.90;999.90;;;6.10;99.90;;;;;;5003463;28;20035;-81
2022/12/07 10:02:36;;;;;;;1999.90;999.90;;;6.20;99.90;;;;;;5000613;28;20031;-80
2022/12/07 10:05:07;;;;;;;1999.90;999.90;;;6.30;99.90;;;;;;4999650;28;20038;-81
2022/12/07 10:07:32;;;;;;;1999.90;999.90;;;6.20;99.90;;;;;;5000756;28;20039;-80
2022/12/07 10:09:58;;;;;;;1999.90;999.90;;;6.10;99.90;;;;;;4999935;28;20039;-80
2022/12/07 10:12:24;;;;;;;1999.90;999.90;;;6.10;99.90;;;;;;4998630;28;20118;-80
2022/12/07 10:15:05;;;;;;;1999.90;999.90;;;5.90;99.90;;;;;;4996832;28;20039;-81
2022/12/07 10:17:40;;;;;;;1999.90;999.90;;;5.90;99.90;;;;;;4997006;28;20038;-79
2022/12/07 10:20:22;;;;;;;1999.90;999.90;;;5.80;99.90;;;;;;4999477;28;20039;-80
2022/12/07 10:23:12;;;;;;;1999.90;999.90;;;5.80;99.90;;;;;;4999596;28;20027;-83
2022/12/07 10:25:40;;;;;;;1999.90;999.90;;;5.80;99.90;;;;;;4999312;28;20039;-80
2022/12/07 10:28:14;;;;;;;1999.90;999.90;;;5.70;99.90;;;;;;5002080;28;20114;-80
2022/12/07 10:30:59;;;;;;;1999.90;999.90;;;5.70;99.90;;;;;;5003123;28;20094;-84
2022/12/07 10:33:33;;;;;;;1999.90;999.90;;;5.60;99.90;;;;;;5004575;28;20027;-80
2022/12/07 10:36:00;;;;;;;1999.90;999.90;;;5.70;99.90;;;;;;4999599;28;20042;-78
2022/12/07 10:38:27;;;;;;;1999.90;999.90;;;5.80;99.90;;;;;;5006727;28;20066;-81
2022/12/07 10:41:05;;;;;;;1999.90;999.90;;;5.70;99.90;;;;;;5008408;28;20046;-81
2022/12/07 10:43:32;;;;;;;1999.90;999.90;;;5.70;99.90;;;;;;5007400;28;20031;-81
2022/12/07 10:46:32;;;;;;;1999.90;999.90;;;5.80;99.90;;;;;;5007029;28;20066;-81
2022/12/07 10:49:21;;;;;;;1999.90;999.90;;;5.80;99.90;;;;;;5004694;28;20035;-80
2022/12/07 10:52:25;;;;;;;1999.90;999.90;;;5.70;99.90;;;;;;5003562;28;20038;-82
2022/12/07 10:55:15;;;;;;;1999.90;999.90;;;5.60;99.90;;;;;;4993242;28;20031;-81
2022/12/07 10:58:03;;;;;;;1999.90;999.90;;;5.50;99.90;;;;;;4989363;28;20038;-81
2022/12/07 11:00:39;;;;;;;1999.90;999.90;;;5.40;99.90;;;;;;4991431;28;21488;-82
2022/12/07 11:03:21;;;;;;;1999.90;999.90;;;5.50;99.90;;;;;;4992223;28;20601;-81
2022/12/07 11:06:14;;;;;;;1999.90;999.90;;;5.50;99.90;;;;;;4998048;28;20058;-81
2022/12/07 11:09:17;;;;;;;1999.90;999.90;;;5.50;99.90;;;;;;4987320;28;20464;-81
2022/12/07 11:11:59;;;;;;;1999.90;999.90;;;5.40;99.90;;;;;;4999574;28;20047;-81
2022/12/07 11:14:45;;;;;;;1999.90;999.90;;;5.40;99.90;;;;;;5005730;22;20043;-78
2022/12/07 11:17:19;;;;;;;1999.90;999.90;;;5.30;99.90;;;;;;4977017;28;20452;-78
2022/12/07 11:20:20;;;;;;;1999.90;999.90;;;5.20;99.90;;;;;;4980616;28;20027;-79
2022/12/07 11:22:58;;;;;;;1999.90;999.90;;;5.30;99.90;;;;;;4980530;28;20896;-80
2022/12/07 11:25:32;;;;;;;1999.90;999.90;;;5.30;99.90;;;;;;4976796;28;20461;-75
2022/12/07 11:28:30;;;;;;;1999.90;999.90;;;5.20;99.90;;;;;;4961599;28;20130;-76
2022/12/07 11:31:08;;;;;;;1999.90;999.90;;;5.20;99.90;;;;;;4957645;28;20039;-77
2022/12/07 11:33:58;;;;;;;1999.90;999.90;;;5.20;99.90;;;;;;4963470;28;20040;-79
2022/12/07 11:36:36;;;;;;;1999.90;999.90;;;5.30;99.90;;;;;;4978313;28;20035;-77
2022/12/07 11:39:23;;;;;;;1999.90;999.90;;;5.30;99.90;;;;;;4967803;28;20040;-77
2022/12/07 11:41:54;;;;;;;1999.90;999.90;;;5.40;99.90;;;;;;4966065;28;20035;-77
2022/12/07 11:44:48;;;;;;;1999.90;999.90;;;5.40;99.90;;;;;;4970481;28;20040;-77
2022/12/07 11:47:26;;;;;;;1999.90;999.90;;;5.40;99.90;;;;;;4956302;28;20035;-77
2022/12/07 11:50:17;;;;;;;1999.90;999.90;;;5.50;99.90;;;;;;4959697;28;20050;-77
2022/12/07 11:52:53;;;;;;;1999.90;999.90;;;5.60;99.90;;;;;;4977108;28;20051;-77
2022/12/07 11:55:29;;;;;;;1999.90;999.90;;;5.80;99.90;;;;;;4964975;28;20048;-77
2022/12/07 11:58:12;;;;;;;1999.90;999.90;;;5.80;99.90;;;;;;4964637;28;20039;-78
2022/12/07 12:00:40;;;;;;;1999.90;999.90;;;5.80;99.90;;;;;;4960376;28;20122;-78
2022/12/07 12:03:15;;;;;;;1999.90;999.90;;;5.90;99.90;;;;;;4957449;28;20035;-79
2022/12/07 12:05:41;;;;;;;1999.90;999.90;;;5.80;99.90;;;;;;4971748;28;20058;-80
2022/12/07 12:08:20;;;;;;;1999.90;999.90;;;5.90;99.90;;;;;;4978343;28;20839;-78
2022/12/07 12:11:04;;;;;;;1999.90;999.90;;;5.90;99.90;;;;;;4961454;28;20050;-77
2022/12/07 12:14:07;;;;;;;1999.90;999.90;;;6.00;99.90;;;;;;4976082;28;20946;-77
2022/12/07 12:16:58;;;;;;;1999.90;999.90;;;6.00;99.90;;;;;;4982035;28;20068;-77
2022/12/07 12:20:00;;;;;;;1999.90;999.90;;;6.10;99.90;;;;;;4981801;28;20032;-79
2022/12/07 12:23:25;;;;;;;1999.90;999.90;;;5.80;99.90;;;;;;4981555;28;20059;-81
2022/12/07 12:26:06;;;;;;;1999.90;999.90;;;5.60;99.90;;;;;;4932556;29;20037;-77
2022/12/07 12:28:53;;;;;;;1999.90;999.90;;;5.50;99.90;;;;;;4930817;29;20055;-77
2022/12/07 12:31:22;;;;;;;1999.90;999.90;;;5.50;99.90;;;;;;4962937;28;20107;-77
2022/12/07 12:33:53;;;;;;;1999.90;999.90;;;5.40;99.90;;;;;;4957645;28;20032;-77
2022/12/07 12:36:22;;;;;;;1999.90;999.90;;;5.40;99.90;;;;;;4975224;28;20043;-78
2022/12/07 12:39:10;;;;;;;1999.90;999.90;;;5.40;99.90;;;;;;4979890;28;20529;-82
2022/12/07 12:41:37;;;;;;;1999.90;999.90;;;5.40;99.90;;;;;;4983397;28;20031;-76
2022/12/07 12:44:23;;;;;;;1999.90;999.90;;;5.40;99.90;;;;;;4975758;28;20119;-76
2022/12/07 12:46:52;;;;;;;1999.90;999.90;;;5.50;99.90;;;;;;4955013;28;20515;-78
2022/12/07 12:49:20;;;;;;;1999.90;999.90;;;5.70;99.90;;;;;;4983828;28;20039;-78
2022/12/07 12:51:54;;;;;;;1999.90;999.90;;;5.70;99.90;;;;;;4960198;28;20035;-77
2022/12/07 12:54:26;;;;;;;1999.90;999.90;;;5.80;99.90;;;;;;4962130;28;20032;-79
2022/12/07 12:57:13;;;;;;;1999.90;999.90;;;6.00;99.90;;;;;;4969109;28;20036;-81
2022/12/07 12:59:42;;;;;;;1999.90;999.90;;;6.00;99.90;;;;;;4977853;28;20039;-78
2022/12/07 13:02:23;;;;;;;1999.90;999.90;;;6.00;99.90;;;;;;4976411;28;20082;-76
2022/12/07 13:04:53;;;;;;;1999.90;999.90;;;6.00;99.90;;;;;;4974934;28;20039;-76
2022/12/07 13:07:46;;;;;;;1999.90;999.90;;;6.00;99.90;;;;;;4974893;28;20039;-79
2022/12/07 13:10:30;;;;;;;1999.90;999.90;;;6.00;99.90;;;;;;4967004;28;20055;-77
2022/12/07 13:13:18;;;;;;;1999.90;999.90;;;5.80;99.90;;;;;;4955446;28;20031;-77
2022/12/07 13:15:48;;;;;;;1999.90;999.90;;;5.80;99.90;;;;;;4963610;28;20055;-77
2022/12/07 13:18:36;;;;;;;1999.90;999.90;;;5.70;99.90;;;;;;4976266;28;20054;-78
2022/12/07 13:21:07;;;;;;;1999.90;999.90;;;5.70;99.90;;;;;;4959963;28;20036;-78
2022/12/07 13:24:00;;;;;;;1999.90;999.90;;;5.60;99.90;;;;;;4969151;28;20040;-78
2022/12/07 13:26:36;;;;;;;1999.90;999.90;;;5.50;99.90;;;;;;4976222;28;20389;-77
2022/12/07 13:29:17;;;;;;;1999.90;999.90;;;5.50;99.90;;;;;;4964368;28;20043;-77
2022/12/07 13:31:56;;;;;;;1999.90;999.90;;;5.50;99.90;;;;;;4955590;28;20043;-77
2022/12/07 13:34:39;;;;;;;1999.90;999.90;;;5.60;99.90;;;;;;4955538;28;20031;-77
2022/12/07 13:37:14;;;;;;;1999.90;999.90;;;5.60;99.90;;;;;;4968596;28;20520;-77
2022/12/07 13:39:49;;;;;;;1999.90;999.90;;;5.70;99.90;;;;;;4974941;28;20032;-77
2022/12/07 13:42:34;;;;;;;1999.90;999.90;;;5.80;99.90;;;;;;4971326;28;20047;-77
2022/12/07 13:45:47;;;;;;;1999.90;999.90;;;5.80;99.90;;;;;;4955382;28;20123;-77
2022/12/07 13:48:29;;;;;;;1999.90;999.90;;;5.90;99.90;;;;;;4955361;28;20047;-77
2022/12/07 13:50:57;;;;;;;1999.90;999.90;;;5.80;99.90;;;;;;4955570;28;20123;-78
2022/12/07 13:53:23;;;;;;;1999.90;999.90;;;5.80;99.90;;;;;;4955491;28;20036;-77
2022/12/07 13:55:49;;;;;;;1999.90;999.90;;;5.80;99.90;;;;;;4958559;28;20523;-80
2022/12/07 13:58:15;;;;;;;1999.90;999.90;;;5.70;99.90;;;;;;4972774;28;20094;-84
2022/12/07 14:00:41;;;;;;;1999.90;999.90;;;5.70;99.90;;;;;;4969714;28;20089;-77
2022/12/07 14:03:13;;;;;;;1999.90;999.90;;;5.70;99.90;;;;;;4955314;28;20039;-77
2022/12/07 14:05:41;;;;;;;1999.90;999.90;;;5.60;99.90;;;;;;4959433;28;20563;-80
2022/12/07 14:08:12;;;;;;;1999.90;999.90;;;5.50;99.90;;;;;;4961556;28;20042;-79
2022/12/07 14:10:49;;;;;;;1999.90;999.90;;;5.50;99.90;;;;;;4957763;28;20059;-78
2022/12/07 14:13:33;;;;;;;1999.90;999.90;;;5.50;99.90;;;;;;4958414;28;20039;-78
2022/12/07 14:16:00;;;;;;;1999.90;999.90;;;5.40;99.90;;;;;;4967733;28;20036;-80
2022/12/07 14:18:28;;;;;;;1999.90;999.90;;;5.40;99.90;;;;;;4975750;28;20043;-79
2022/12/07 14:21:15;;;;;;;1999.90;999.90;;;5.40;99.90;;;;;;4975016;28;20046;-79
2022/12/07 14:23:41;;;;;;;1999.90;999.90;;;5.40;99.90;;;;;;4974909;28;20130;-79
2022/12/07 14:26:15;;;;;;;1999.90;999.90;;;5.30;99.90;;;;;;4978440;28;20529;-80
2022/12/07 14:28:42;;;;;;;1999.90;999.90;;;5.50;99.90;;;;;;4979827;28;20597;-79
2022/12/07 14:31:13;;;;;;;1999.90;999.90;;;5.30;99.90;;;;;;4979979;28;20035;-81
2022/12/07 14:33:40;;;;;;;1999.90;999.90;;;5.30;99.90;;;;;;4976046;28;20063;-81
2022/12/07 14:36:08;;;;;;;1999.90;999.90;;;5.20;99.90;;;;;;4977971;28;20062;-79
2022/12/07 14:38:34;;;;;;;1999.90;999.90;;;5.10;99.90;;;;;;4978125;28;20071;-81
2022/12/07 14:41:50;;;;;;;1999.90;999.90;;;5.00;99.90;;;;;;4978267;28;20071;-82
2022/12/07 14:43:45;;;;;;;1999.90;999.90;;;5.00;99.90;;;;;;4978376;28;20036;-82
2022/12/07 14:46:11;;;;;;;1999.90;999.90;;;4.90;99.90;;;;;;4979053;28;20043;-82
2022/12/07 14:48:36;;;;;;;1999.90;999.90;;;4.90;99.90;;;;;;4981905;28;20031;-81
2022/12/07 14:51:03;;;;;;;1999.90;999.90;;;4.90;99.90;;;;;;4981020;28;20138;-83
2022/12/07 14:53:34;;;;;;;1999.90;999.90;;;4.90;99.90;;;;;;4978600;28;20051;-80
2022/12/07 14:56:00;;;;;;;1999.90;999.90;;;4.90;99.90;;;;;;4978340;28;20484;-81
2022/12/07 14:58:25;;;;;;;1999.90;999.90;;;4.90;99.90;;;;;;4978195;28;20306;-81
2022/12/07 15:00:51;;;;;;;1999.90;999.90;;;4.90;99.90;;;;;;4984313;28;20524;-80
2022/12/07 15:03:17;;;;;;;1999.90;999.90;;;4.90;99.90;;;;;;4982432;28;20505;-81
2022/12/07 15:05:42;;;;;;;1999.90;999.90;;;4.80;99.90;;;;;;4979956;28;20030;-81
2022/12/07 15:08:14;;;;;;;1999.90;999.90;;;4.80;99.90;;;;;;4978127;28;20444;-80
2022/12/07 15:10:40;;;;;;;1999.90;999.90;;;4.80;99.90;;;;;;4977522;28;20043;-81
2022/12/07 15:15:52;;;;;;;1999.90;999.90;;;4.80;99.90;;;;;;4979507;28;20027;-80
2022/12/07 15:18:19;;;;;;;1999.90;999.90;;;4.70;99.90;;;;;;4977942;28;20042;-81
2022/12/07 15:20:45;;;;;;;1999.90;999.90;;;4.70;99.90;;;;;;4976548;28;20485;-80
2022/12/07 15:23:12;;;;;;;1999.90;999.90;;;4.60;99.90;;;;;;4976740;28;20039;-80
2022/12/07 15:25:44;;;;;;;1999.90;999.90;;;4.60;99.90;;;;;;4977410;28;20035;-81
2022/12/07 15:28:10;;;;;;;1999.90;999.90;;;4.60;99.90;;;;;;4977062;28;20031;-81
2022/12/07 15:30:37;;;;;;;1999.90;999.90;;;4.60;99.90;;;;;;4979066;28;20405;-81
2022/12/07 15:33:03;;;;;;;1999.90;999.90;;;4.50;99.90;;;;;;4977238;28;20134;-81
2022/12/07 15:35:28;;;;;;;1999.90;999.90;;;4.50;99.90;;;;;;4976623;28;20163;-81
2022/12/07 15:37:54;;;;;;;1999.90;999.90;;;4.50;99.90;;;;;;4978385;28;20027;-81
2022/12/07 15:40:19;;;;;;;1999.90;999.90;;;4.50;99.90;;;;;;4976527;28;20182;-81
2022/12/07 15:42:45;;;;;;;1999.90;999.90;;;4.50;99.90;;;;;;4976368;28;20038;-81
2022/12/07 15:45:11;;;;;;;1999.90;999.90;;;4.50;99.90;;;;;;4997363;28;20043;-78
2022/12/07 15:47:41;;;;;;;1999.90;999.90;;;4.50;99.90;;;;;;4999498;28;20044;-79
2022/12/07 15:50:13;;;;;;;1999.90;999.90;;;4.50;99.90;;;;;;4998396;28;20051;-81
2022/12/07 15:52:38;;;;;;;1999.90;999.90;;;4.40;99.90;;;;;;4984484;28;20027;-81
2022/12/07 15:55:05;;;;;;;1999.90;999.90;;;4.40;99.90;;;;;;4981063;28;20090;-80
2022/12/07 15:57:33;;;;;;;1999.90;999.90;;;4.40;99.90;;;;;;4980490;28;20035;-80
2022/12/07 15:59:58;;;;;;;1999.90;999.90;;;4.30;99.90;;;;;;4977935;28;20568;-81
2022/12/07 16:02:25;;;;;;;1999.90;999.90;;;4.30;99.90;;;;;;4979620;28;20067;-81
2022/12/07 16:04:51;;;;;;;1999.90;999.90;;;4.30;99.90;;;;;;4981086;28;20481;-83
2022/12/07 16:07:18;;;;;;;1999.90;999.90;;;4.20;99.90;;;;;;4981004;28;20102;-81
2022/12/07 16:09:44;;;;;;;1999.90;999.90;;;4.20;99.90;;;;;;4981466;28;20071;-81
2022/12/07 16:12:11;;;;;;;1999.90;999.90;;;4.20;99.90;;;;;;4981768;28;20036;-80
2022/12/07 16:14:37;;;;;;;1999.90;999.90;;;4.20;99.90;;;;;;4982168;28;20547;-80
2022/12/07 16:17:04;;;;;;;1999.90;999.90;;;4.20;99.90;;;;;;4979744;28;20036;-80
2022/12/07 16:19:30;;;;;;;1999.90;999.90;;;4.20;99.90;;;;;;4979541;28;20114;-80
2022/12/07 16:21:56;;;;;;;1999.90;999.90;;;4.10;99.90;;;;;;4980053;28;20045;-82
2022/12/07 16:24:22;;;;;;;1999.90;999.90;;;4.10;99.90;;;;;;4982118;28;20114;-81
2022/12/07 16:26:47;;;;;;;1999.90;999.90;;;4.10;99.90;;;;;;4980825;28;20035;-81
2022/12/07 16:29:14;;;;;;;1999.90;999.90;;;4.10;99.90;;;;;;4981305;28;20177;-80
2022/12/07 16:31:40;;;;;;;1999.90;999.90;;;4.10;99.90;;;;;;4980094;28;20417;-82
2022/12/07 16:34:06;;;;;;;1999.90;999.90;;;4.10;99.90;;;;;;4980701;28;20039;-79
2022/12/07 16:36:32;;;;;;;1999.90;999.90;;;4.10;99.90;;;;;;4979634;28;20042;-81
2022/12/07 16:38:59;;;;;;;1999.90;999.90;;;4.10;99.90;;;;;;4980048;28;20035;-84
2022/12/07 16:41:24;;;;;;;1999.90;999.90;;;4.10;99.90;;;;;;4978673;28;20091;-83
2022/12/07 16:43:50;;;;;;;1999.90;999.90;;;4.10;99.90;;;;;;4979299;28;20125;-80
2022/12/07 16:46:16;;;;;;;1999.90;999.90;;;4.10;99.90;;;;;;4981420;28;20042;-82
2022/12/07 16:48:42;;;;;;;1999.90;999.90;;;4.10;99.90;;;;;;4979547;28;20043;-79
2022/12/07 16:51:10;;;;;;;1999.90;999.90;;;4.10;99.90;;;;;;4980075;28;20050;-81
2022/12/07 16:53:37;;;;;;;1999.90;999.90;;;4.10;99.90;;;;;;4979278;28;20579;-79
2022/12/07 16:56:03;;;;;;;1999.90;999.90;;;4.00;99.90;;;;;;4980237;28;20046;-82
2022/12/07 16:58:30;;;;;;;1999.90;999.90;;;4.00;99.90;;;;;;4979854;28;20575;-81
2022/12/07 17:00:55;;;;;;;1999.90;999.90;;;4.00;99.90;;;;;;4980949;28;20077;-80
2022/12/07 17:03:21;;;;;;;1999.90;999.90;;;4.10;99.90;;;;;;4981483;28;20066;-81
2022/12/07 17:05:48;;;;;;;1999.90;999.90;;;4.00;99.90;;;;;;4995475;28;20031;-80
2022/12/07 17:08:14;;;;;;;1999.90;999.90;;;4.00;99.90;;;;;;4993629;28;20110;-81
2022/12/07 17:10:42;;;;;;;1999.90;999.90;;;4.00;99.90;;;;;;4976181;28;20107;-81
2022/12/07 17:16:01;;;;;;;1999.90;999.90;;;4.00;99.90;;;;;;4978827;28;20039;-79
2022/12/07 17:18:35;;;;;;;1999.90;999.90;;;4.00;99.90;;;;;;5005210;23;20078;-77
2022/12/07 17:21:06;;;;;;;1999.90;999.90;;;4.00;99.90;;;;;;4995151;28;20886;-79
2022/12/07 17:23:33;;;;;;;1999.90;999.90;;;4.00;99.90;;;;;;4993839;28;20038;-77
2022/12/07 17:26:10;;;;;;;1999.90;999.90;;;4.00;99.90;;;;;;4994056;28;20035;-78
2022/12/07 17:28:36;;;;;;;1999.90;999.90;;;4.00;99.90;;;;;;4995182;28;20035;-77
2022/12/07 17:31:05;;;;;;;1999.90;999.90;;;3.90;99.90;;;;;;4996053;28;20051;-76
2022/12/07 17:33:31;;;;;;;1999.90;999.90;;;3.90;99.90;;;;;;4995217;28;20035;-76
2022/12/07 17:35:57;;;;;;;1999.90;999.90;;;3.90;99.90;;;;;;4995132;28;20039;-77